sensor_id;sensor_type;location;lat;lon;timestamp;pressure;altitude;pressure_sealevel;temperature;humidity
36380;BME280;22411;53.016;18.632;2023-02-11T00:01:15;101769.41;;;1.59;100.00
36380;BME280;22411;53.016;18.632;2023-02-11T00:03:44;101776.22;;;1.58;100.00
36380;BME280;22411;53.016;18.632;2023-02-11T00:06:10;101772.81;;;1.57;100.00
36380;BME280;22411;53.016;18.632;2023-02-11T00:08:37;101771.16;;;1.55;100.00
36380;BME280;22411;53.016;18.632;2023-02-11T00:11:03;101789.03;;;1.55;100.00
36380;BME280;22411;53.016;18.632;2023-02-11T00:13:30;101754.94;;;1.56;100.00
36380;BME280;22411;53.016;18.632;2023-02-11T00:15:56;101749.91;;;1.53;100.00
36380;BME280;22411;53.016;18.632;2023-02-11T00:18:22;101754.97;;;1.54;100.00
36380;BME280;22411;53.016;18.632;2023-02-11T00:20:48;101766.81;;;1.62;100.00
36380;BME280;22411;53.016;18.632;2023-02-11T00:23:14;101775.38;;;1.59;100.00
36380;BME280;22411;53.016;18.632;2023-02-11T00:25:42;101785.59;;;1.57;100.00
36380;BME280;22411;53.016;18.632;2023-02-11T00:28:10;101783.00;;;1.62;100.00
36380;BME280;22411;53.016;18.632;2023-02-11T00:30:36;101795.81;;;1.57;100.00
36380;BME280;22411;53.016;18.632;2023-02-11T00:33:02;101775.38;;;1.59;100.00
36380;BME280;22411;53.016;18.632;2023-02-11T00:35:28;101778.78;;;1.56;100.00
36380;BME280;22411;53.016;18.632;2023-02-11T00:37:55;101777.03;;;1.62;100.00
36380;BME280;22411;53.016;18.632;2023-02-11T00:40:21;101760.84;;;1.64;100.00
36380;BME280;22411;53.016;18.632;2023-02-11T00:42:48;101757.41;;;1.65;100.00
36380;BME280;22411;53.016;18.632;2023-02-11T00:45:14;101751.41;;;1.69;100.00
36380;BME280;22411;53.016;18.632;2023-02-11T00:47:40;101730.97;;;1.66;100.00
36380;BME280;22411;53.016;18.632;2023-02-11T00:50:06;101717.38;;;1.64;100.00
36380;BME280;22411;53.016;18.632;2023-02-11T00:52:33;101711.44;;;1.62;100.00
36380;BME280;22411;53.016;18.632;2023-02-11T00:54:59;101705.44;;;1.65;100.00
36380;BME280;22411;53.016;18.632;2023-02-11T00:57:26;101684.94;;;1.69;100.00
36380;BME280;22411;53.016;18.632;2023-02-11T00:59:52;101668.81;;;1.63;100.00
36380;BME280;22411;53.016;18.632;2023-02-11T01:02:18;101671.44;;;1.60;100.00
36380;BME280;22411;53.016;18.632;2023-02-11T01:04:44;101685.81;;;1.67;100.00
36380;BME280;22411;53.016;18.632;2023-02-11T01:07:10;101694.38;;;1.64;100.00
36380;BME280;22411;53.016;18.632;2023-02-11T01:09:37;101688.34;;;1.70;100.00
36380;BME280;22411;53.016;18.632;2023-02-11T01:12:04;101683.25;;;1.70;100.00
36380;BME280;22411;53.016;18.632;2023-02-11T01:14:29;101673.00;;;1.70;100.00
36380;BME280;22411;53.016;18.632;2023-02-11T01:16:56;101664.47;;;1.71;100.00
36380;BME280;22411;53.016;18.632;2023-02-11T01:19:21;101673.00;;;1.70;100.00
36380;BME280;22411;53.016;18.632;2023-02-11T01:21:48;101666.16;;;1.72;100.00
36380;BME280;22411;53.016;18.632;2023-02-11T01:24:13;101659.44;;;1.65;100.00
36380;BME280;22411;53.016;18.632;2023-02-11T01:26:40;101673.88;;;1.69;100.00
36380;BME280;22411;53.016;18.632;2023-02-11T01:29:05;101661.88;;;1.72;100.00
36380;BME280;22411;53.016;18.632;2023-02-11T01:31:32;101661.84;;;1.77;100.00
36380;BME280;22411;53.016;18.632;2023-02-11T01:33:57;101647.31;;;1.79;100.00
36380;BME280;22411;53.016;18.632;2023-02-11T01:36:24;101637.94;;;1.79;100.00
36380;BME280;22411;53.016;18.632;2023-02-11T01:38:49;101634.59;;;1.76;100.00
36380;BME280;22411;53.016;18.632;2023-02-11T01:41:15;101633.72;;;1.77;100.00
36380;BME280;22411;53.016;18.632;2023-02-11T01:43:47;101634.56;;;1.77;100.00
36380;BME280;22411;53.016;18.632;2023-02-11T01:46:37;101616.69;;;1.76;100.00
36380;BME280;22411;53.016;18.632;2023-02-11T01:49:05;101614.09;;;1.77;100.00
36380;BME280;22411;53.016;18.632;2023-02-11T01:54:04;101588.66;;;1.70;100.00
36380;BME280;22411;53.016;18.632;2023-02-11T01:56:51;101586.91;;;1.72;100.00
36380;BME280;22411;53.016;18.632;2023-02-11T02:05:16;101581.84;;;1.70;100.00
36380;BME280;22411;53.016;18.632;2023-02-11T02:07:54;101563.03;;;1.73;100.00
36380;BME280;22411;53.016;18.632;2023-02-11T02:10:23;101559.69;;;1.71;100.00
36380;BME280;22411;53.016;18.632;2023-02-11T02:12:52;101578.47;;;1.67;100.00
36380;BME280;22411;53.016;18.632;2023-02-11T02:15:23;101575.03;;;1.68;100.00
36380;BME280;22411;53.016;18.632;2023-02-11T02:17:59;101563.88;;;1.73;100.00
36380;BME280;22411;53.016;18.632;2023-02-11T02:23:21;101569.00;;;1.75;100.00
36380;BME280;22411;53.016;18.632;2023-02-11T02:29:08;101552.91;;;1.67;100.00
36380;BME280;22411;53.016;18.632;2023-02-11T02:31:58;101555.44;;;1.68;100.00
36380;BME280;22411;53.016;18.632;2023-02-11T02:34:45;101528.25;;;1.63;100.00
36380;BME280;22411;53.016;18.632;2023-02-11T02:37:23;101531.75;;;1.59;100.00
36380;BME280;22411;53.016;18.632;2023-02-11T02:39:52;101528.25;;;1.63;100.00
36380;BME280;22411;53.016;18.632;2023-02-11T02:42:19;101508.63;;;1.66;100.00
36380;BME280;22411;53.016;18.632;2023-02-11T02:44:50;101510.38;;;1.63;100.00
36380;BME280;22411;53.016;18.632;2023-02-11T02:47:17;101509.44;;;1.68;100.00
36380;BME280;22411;53.016;18.632;2023-02-11T02:49:43;101497.59;;;1.64;100.00
36380;BME280;22411;53.016;18.632;2023-02-11T02:52:24;101501.00;;;1.63;100.00
36380;BME280;22411;53.016;18.632;2023-02-11T03:08:35;101482.22;;;1.66;100.00
36380;BME280;22411;53.016;18.632;2023-02-11T03:11:06;101495.84;;;1.66;100.00
36380;BME280;22411;53.016;18.632;2023-02-11T03:13:35;101483.03;;;1.68;100.00
36380;BME280;22411;53.016;18.632;2023-02-11T03:16:20;101477.06;;;1.69;100.00
36380;BME280;22411;53.016;18.632;2023-02-11T03:18:51;101472.84;;;1.66;100.00
36380;BME280;22411;53.016;18.632;2023-02-11T03:21:19;101460.88;;;1.68;100.00
36380;BME280;22411;53.016;18.632;2023-02-11T03:23:53;101465.13;;;1.68;100.00
36380;BME280;22411;53.016;18.632;2023-02-11T03:26:34;101467.69;;;1.69;100.00
36380;BME280;22411;53.016;18.632;2023-02-11T03:34:15;101442.97;;;1.68;100.00
36380;BME280;22411;53.016;18.632;2023-02-11T03:39:32;101448.88;;;1.72;100.00
36380;BME280;22411;53.016;18.632;2023-02-11T03:42:00;101444.66;;;1.71;100.00
36380;BME280;22411;53.016;18.632;2023-02-11T03:44:34;101447.06;;;1.78;100.00
36380;BME280;22411;53.016;18.632;2023-02-11T03:47:04;101428.34;;;1.79;100.00
36380;BME280;22411;53.016;18.632;2023-02-11T03:49:34;101431.72;;;1.80;100.00
36380;BME280;22411;53.016;18.632;2023-02-11T03:52:02;101420.66;;;1.78;100.00
36380;BME280;22411;53.016;18.632;2023-02-11T03:54:30;101426.53;;;1.83;100.00
36380;BME280;22411;53.016;18.632;2023-02-11T03:56:59;101433.41;;;1.81;100.00
36380;BME280;22411;53.016;18.632;2023-02-11T03:59:26;101425.66;;;1.84;100.00
36380;BME280;22411;53.016;18.632;2023-02-11T04:01:52;101400.13;;;1.82;100.00
36380;BME280;22411;53.016;18.632;2023-02-11T04:04:18;101396.69;;;1.83;100.00
36380;BME280;22411;53.016;18.632;2023-02-11T04:06:44;101390.72;;;1.84;100.00
36380;BME280;22411;53.016;18.632;2023-02-11T04:09:10;101387.28;;;1.87;100.00
36380;BME280;22411;53.016;18.632;2023-02-11T04:11:37;101378.72;;;1.88;100.00
36380;BME280;22411;53.016;18.632;2023-02-11T04:14:03;101399.22;;;1.87;100.00
36380;BME280;22411;53.016;18.632;2023-02-11T04:16:29;101393.22;;;1.88;100.00
36380;BME280;22411;53.016;18.632;2023-02-11T04:18:56;101371.06;;;1.88;100.00
36380;BME280;22411;53.016;18.632;2023-02-11T04:21:22;101358.31;;;1.87;100.00
36380;BME280;22411;53.016;18.632;2023-02-11T04:23:48;101350.69;;;1.83;100.00
36380;BME280;22411;53.016;18.632;2023-02-11T04:26:14;101346.53;;;1.79;100.00
36380;BME280;22411;53.016;18.632;2023-02-11T04:28:40;101349.94;;;1.80;100.00
36380;BME280;22411;53.016;18.632;2023-02-11T04:31:06;101342.25;;;1.78;100.00
36380;BME280;22411;53.016;18.632;2023-02-11T04:33:32;101347.34;;;1.81;100.00
36380;BME280;22411;53.016;18.632;2023-02-11T04:35:58;101336.22;;;1.82;100.00
36380;BME280;22411;53.016;18.632;2023-02-11T04:38:23;101338.00;;;1.79;100.00
36380;BME280;22411;53.016;18.632;2023-02-11T04:40:50;101350.72;;;1.82;100.00
36380;BME280;22411;53.016;18.632;2023-02-11T04:43:15;101366.19;;;1.76;100.00
36380;BME280;22411;53.016;18.632;2023-02-11T04:45:41;101336.25;;;1.81;100.00
36380;BME280;22411;53.016;18.632;2023-02-11T04:48:07;101343.91;;;1.82;100.00
36380;BME280;22411;53.016;18.632;2023-02-11T04:50:33;101343.78;;;1.89;100.00
36380;BME280;22411;53.016;18.632;2023-02-11T04:52:59;101352.28;;;1.91;100.00
36380;BME280;22411;53.016;18.632;2023-02-11T04:55:25;101362.47;;;1.92;100.00
36380;BME280;22411;53.016;18.632;2023-02-11T04:57:51;101343.69;;;1.93;100.00
36380;BME280;22411;53.016;18.632;2023-02-11T05:00:17;101344.66;;;1.88;100.00
36380;BME280;22411;53.016;18.632;2023-02-11T05:02:43;101340.25;;;1.94;100.00
36380;BME280;22411;53.016;18.632;2023-02-11T05:05:09;101359.91;;;1.92;100.00
36380;BME280;22411;53.016;18.632;2023-02-11T05:07:35;101343.78;;;1.90;100.00
36380;BME280;22411;53.016;18.632;2023-02-11T05:10:01;101340.22;;;1.97;100.00
36380;BME280;22411;53.016;18.632;2023-02-11T05:12:27;101346.97;;;2.01;100.00
36380;BME280;22411;53.016;18.632;2023-02-11T05:14:53;101341.00;;;2.01;100.00
36380;BME280;22411;53.016;18.632;2023-02-11T05:17:19;101345.28;;;1.99;100.00
36380;BME280;22411;53.016;18.632;2023-02-11T05:19:44;101321.41;;;2.00;100.00
36380;BME280;22411;53.016;18.632;2023-02-11T05:22:11;101335.09;;;1.97;100.00
36380;BME280;22411;53.016;18.632;2023-02-11T05:24:37;101312.13;;;1.94;100.00
36380;BME280;22411;53.016;18.632;2023-02-11T05:27:03;101347.09;;;1.94;100.00
36380;BME280;22411;53.016;18.632;2023-02-11T05:29:29;101312.16;;;1.93;100.00
36380;BME280;22411;53.016;18.632;2023-02-11T05:31:55;101293.44;;;1.92;100.00
36380;BME280;22411;53.016;18.632;2023-02-11T05:34:21;101279.81;;;1.92;100.00
36380;BME280;22411;53.016;18.632;2023-02-11T05:36:47;101275.50;;;1.94;100.00
36380;BME280;22411;53.016;18.632;2023-02-11T05:39:13;101266.16;;;1.93;100.00
36380;BME280;22411;53.016;18.632;2023-02-11T05:41:39;101264.47;;;1.92;100.00
36380;BME280;22411;53.016;18.632;2023-02-11T05:44:04;101273.78;;;1.96;100.00
36380;BME280;22411;53.016;18.632;2023-02-11T05:46:31;101271.19;;;1.97;100.00
36380;BME280;22411;53.016;18.632;2023-02-11T05:48:56;101266.16;;;1.93;100.00
36380;BME280;22411;53.016;18.632;2023-02-11T05:51:23;101261.00;;;1.96;100.00
36380;BME280;22411;53.016;18.632;2023-02-11T05:53:49;101267.72;;;1.98;100.00
36380;BME280;22411;53.016;18.632;2023-02-11T05:56:15;101262.69;;;1.95;100.00
36380;BME280;22411;53.016;18.632;2023-02-11T05:58:41;101255.75;;;2.00;100.00
36380;BME280;22411;53.016;18.632;2023-02-11T06:01:08;101281.50;;;1.93;100.00
36380;BME280;22411;53.016;18.632;2023-02-11T06:03:33;101265.97;;;2.00;100.00
36380;BME280;22411;53.016;18.632;2023-02-11T06:06:00;101258.31;;;2.00;100.00
36380;BME280;22411;53.016;18.632;2023-02-11T06:08:26;101274.53;;;2.01;100.00
36380;BME280;22411;53.016;18.632;2023-02-11T06:10:52;101261.91;;;1.92;100.00
36380;BME280;22411;53.016;18.632;2023-02-11T06:13:17;101275.53;;;1.92;100.00
36380;BME280;22411;53.016;18.632;2023-02-11T06:15:44;101244.06;;;1.89;100.00
36380;BME280;22411;53.016;18.632;2023-02-11T06:18:10;101241.47;;;1.92;100.00
36380;BME280;22411;53.016;18.632;2023-02-11T06:20:37;101245.69;;;1.93;100.00
36380;BME280;22411;53.016;18.632;2023-02-11T06:23:05;101237.25;;;1.89;100.00
36380;BME280;22411;53.016;18.632;2023-02-11T06:25:31;101232.03;;;1.95;100.00
36380;BME280;22411;53.016;18.632;2023-02-11T06:27:57;101227.84;;;1.91;100.00
36380;BME280;22411;53.016;18.632;2023-02-11T06:30:23;101238.88;;;1.93;100.00
36380;BME280;22411;53.016;18.632;2023-02-11T06:32:49;101250.84;;;1.91;100.00
36380;BME280;22411;53.016;18.632;2023-02-11T06:35:16;101245.00;;;1.86;100.00
36380;BME280;22411;53.016;18.632;2023-02-11T06:37:42;101234.75;;;1.86;100.00
36380;BME280;22411;53.016;18.632;2023-02-11T06:40:09;101232.25;;;1.83;100.00
36380;BME280;22411;53.016;18.632;2023-02-11T06:42:36;101226.34;;;1.81;100.00
36380;BME280;22411;53.016;18.632;2023-02-11T06:45:04;101231.50;;;1.78;100.00
36380;BME280;22411;53.016;18.632;2023-02-11T06:47:30;101221.41;;;1.72;100.00
36380;BME280;22411;53.016;18.632;2023-02-11T06:49:58;101213.75;;;1.72;100.00
36380;BME280;22411;53.016;18.632;2023-02-11T06:52:24;101225.59;;;1.76;100.00
36380;BME280;22411;53.016;18.632;2023-02-11T06:54:50;101206.03;;;1.75;100.00
36380;BME280;22411;53.016;18.632;2023-02-11T06:57:16;101215.47;;;1.71;100.00
36380;BME280;22411;53.016;18.632;2023-02-11T06:59:42;101214.53;;;1.74;100.00
36380;BME280;22411;53.016;18.632;2023-02-11T07:02:09;101190.03;;;1.65;100.00
36380;BME280;22411;53.016;18.632;2023-02-11T07:04:35;101193.41;;;1.67;100.00
36380;BME280;22411;53.016;18.632;2023-02-11T07:07:01;101190.78;;;1.70;100.00
36380;BME280;22411;53.016;18.632;2023-02-11T07:09:27;101188.28;;;1.67;100.00
36380;BME280;22411;53.016;18.632;2023-02-11T07:11:54;101196.66;;;1.74;100.00
36380;BME280;22411;53.016;18.632;2023-02-11T07:14:20;101206.03;;;1.73;100.00
36380;BME280;22411;53.016;18.632;2023-02-11T07:16:46;101197.47;;;1.76;100.00
36380;BME280;22411;53.016;18.632;2023-02-11T07:19:13;101207.53;;;1.83;100.00
36380;BME280;22411;53.016;18.632;2023-02-11T07:21:39;101204.97;;;1.85;100.00
36380;BME280;22411;53.016;18.632;2023-02-11T07:24:06;101202.41;;;1.85;100.00
36380;BME280;22411;53.016;18.632;2023-02-11T07:26:33;101201.59;;;1.83;100.00
36380;BME280;22411;53.016;18.632;2023-02-11T07:29:02;101198.16;;;1.84;100.00
36380;BME280;22411;53.016;18.632;2023-02-11T07:31:29;101199.06;;;1.81;100.00
36380;BME280;22411;53.016;18.632;2023-02-11T07:34:00;101181.97;;;1.83;100.00
36380;BME280;22411;53.016;18.632;2023-02-11T07:36:27;101174.25;;;1.87;100.00
36380;BME280;22411;53.016;18.632;2023-02-11T07:38:55;101179.34;;;1.87;100.00
36380;BME280;22411;53.016;18.632;2023-02-11T07:41:23;101172.56;;;1.86;100.00
36380;BME280;22411;53.016;18.632;2023-02-11T07:43:50;101164.75;;;1.92;100.00
36380;BME280;22411;53.016;18.632;2023-02-11T07:48:42;101146.91;;;1.89;100.00
36380;BME280;22411;53.016;18.632;2023-02-11T07:51:14;101142.59;;;1.92;100.00
36380;BME280;22411;53.016;18.632;2023-02-11T07:53:41;101153.69;;;1.91;100.00
36380;BME280;22411;53.016;18.632;2023-02-11T07:56:10;101151.78;;;1.99;100.00
36380;BME280;22411;53.016;18.632;2023-02-11T07:58:39;101162.91;;;1.98;100.00
36380;BME280;22411;53.016;18.632;2023-02-11T08:01:12;101174.72;;;2.04;100.00
36380;BME280;22411;53.016;18.632;2023-02-11T08:03:39;101172.25;;;2.01;100.00
36380;BME280;22411;53.016;18.632;2023-02-11T08:06:12;101161.13;;;2.02;100.00
36380;BME280;22411;53.016;18.632;2023-02-11T08:08:39;101179.78;;;2.05;100.00
36380;BME280;22411;53.016;18.632;2023-02-11T08:11:07;101154.16;;;2.08;100.00
36380;BME280;22411;53.016;18.632;2023-02-11T08:13:34;101159.31;;;2.07;100.00
36380;BME280;22411;53.016;18.632;2023-02-11T08:16:00;101149.91;;;2.07;100.00
36380;BME280;22411;53.016;18.632;2023-02-11T08:18:26;101147.34;;;2.07;100.00
36380;BME280;22411;53.016;18.632;2023-02-11T08:20:52;101156.59;;;2.13;100.00
36380;BME280;22411;53.016;18.632;2023-02-11T08:23:19;101110.47;;;2.16;100.00
36380;BME280;22411;53.016;18.632;2023-02-11T08:25:44;101126.72;;;2.15;100.00
36380;BME280;22411;53.016;18.632;2023-02-11T08:28:10;101123.22;;;2.19;100.00
36380;BME280;22411;53.016;18.632;2023-02-11T08:30:40;101126.56;;;2.21;100.00
36380;BME280;22411;53.016;18.632;2023-02-11T08:33:18;101137.66;;;2.20;100.00
36380;BME280;22411;53.016;18.632;2023-02-11T08:35:44;101122.22;;;2.25;100.00
36380;BME280;22411;53.016;18.632;2023-02-11T08:38:10;101132.41;;;2.26;100.00
36380;BME280;22411;53.016;18.632;2023-02-11T08:40:37;101119.59;;;2.28;100.00
36380;BME280;22411;53.016;18.632;2023-02-11T08:43:04;101134.06;;;2.29;100.00
36380;BME280;22411;53.016;18.632;2023-02-11T08:45:30;101140.91;;;2.28;100.00
36380;BME280;22411;53.016;18.632;2023-02-11T08:47:57;101145.97;;;2.30;100.00
36380;BME280;22411;53.016;18.632;2023-02-11T08:50:23;101151.94;;;2.30;100.00
36380;BME280;22411;53.016;18.632;2023-02-11T08:52:49;101115.22;;;2.31;100.00
36380;BME280;22411;53.016;18.632;2023-02-11T08:55:17;101117.00;;;2.29;100.00
36380;BME280;22411;53.016;18.632;2023-02-11T08:57:44;101144.16;;;2.35;100.00
36380;BME280;22411;53.016;18.632;2023-02-11T09:00:11;101138.03;;;2.41;100.00
36380;BME280;22411;53.016;18.632;2023-02-11T09:02:37;101136.41;;;2.38;100.00
36380;BME280;22411;53.016;18.632;2023-02-11T09:05:03;101147.59;;;2.34;100.00
36380;BME280;22411;53.016;18.632;2023-02-11T09:07:29;101142.50;;;2.32;100.00
36380;BME280;22411;53.016;18.632;2023-02-11T09:09:55;101153.53;;;2.34;100.00
36380;BME280;22411;53.016;18.632;2023-02-11T09:12:21;101118.63;;;2.32;100.00
36380;BME280;22411;53.016;18.632;2023-02-11T09:14:47;101143.38;;;2.31;100.00
36380;BME280;22411;53.016;18.632;2023-02-11T09:17:13;101128.84;;;2.32;100.00
36380;BME280;22411;53.016;18.632;2023-02-11T09:19:39;101111.78;;;2.34;100.00
36380;BME280;22411;53.016;18.632;2023-02-11T09:22:05;101138.22;;;2.33;100.00
36380;BME280;22411;53.016;18.632;2023-02-11T09:24:31;101148.47;;;2.33;100.00
36380;BME280;22411;53.016;18.632;2023-02-11T09:26:57;101124.56;;;2.34;100.00
36380;BME280;22411;53.016;18.632;2023-02-11T09:29:23;101106.69;;;2.32;100.00
36380;BME280;22411;53.016;18.632;2023-02-11T09:31:49;101097.47;;;2.27;100.00
36380;BME280;22411;53.016;18.632;2023-02-11T09:34:15;101094.03;;;2.26;100.00
36380;BME280;22411;53.016;18.632;2023-02-11T09:36:41;101102.56;;;2.27;100.00
36380;BME280;22411;53.016;18.632;2023-02-11T09:39:11;101106.03;;;2.24;100.00
36380;BME280;22411;53.016;18.632;2023-02-11T09:44:34;101075.19;;;2.30;100.00
36380;BME280;22411;53.016;18.632;2023-02-11T09:47:12;101059.03;;;2.28;100.00
36380;BME280;22411;53.016;18.632;2023-02-11T09:49:48;101058.94;;;2.31;100.00
36380;BME280;22411;53.016;18.632;2023-02-11T09:52:39;101027.28;;;2.35;100.00
36380;BME280;22411;53.016;18.632;2023-02-11T09:55:32;101053.88;;;2.30;100.00
36380;BME280;22411;53.016;18.632;2023-02-11T09:58:03;101018.84;;;2.32;100.00
36380;BME280;22411;53.016;18.632;2023-02-11T10:00:57;101034.13;;;2.35;100.00
36380;BME280;22411;53.016;18.632;2023-02-11T10:15:26;101035.25;;;2.57;100.00
36380;BME280;22411;53.016;18.632;2023-02-11T10:21:24;101055.41;;;2.68;100.00
36380;BME280;22411;53.016;18.632;2023-02-11T10:23:58;101057.16;;;2.68;100.00
36380;BME280;22411;53.016;18.632;2023-02-11T10:26:26;101063.81;;;2.73;100.00
36380;BME280;22411;53.016;18.632;2023-02-11T10:28:59;101053.50;;;2.76;100.00
36380;BME280;22411;53.016;18.632;2023-02-11T10:31:37;101071.31;;;2.81;100.00
36380;BME280;22411;53.016;18.632;2023-02-11T10:34:08;101072.09;;;2.83;100.00
36380;BME280;22411;53.016;18.632;2023-02-11T10:36:37;101074.66;;;2.83;100.00
36380;BME280;22411;53.016;18.632;2023-02-11T10:39:12;101079.66;;;2.87;100.00
36380;BME280;22411;53.016;18.632;2023-02-11T10:41:43;101089.00;;;2.90;100.00
36380;BME280;22411;53.016;18.632;2023-02-11T10:44:38;101090.50;;;2.97;100.00
36380;BME280;22411;53.016;18.632;2023-02-11T10:47:19;101098.88;;;3.02;100.00
36380;BME280;22411;53.016;18.632;2023-02-11T10:49:47;101101.28;;;3.08;100.00
36380;BME280;22411;53.016;18.632;2023-02-11T10:52:21;101091.03;;;3.08;100.00
36380;BME280;22411;53.016;18.632;2023-02-11T10:55:14;101089.13;;;3.15;100.00
36380;BME280;22411;53.016;18.632;2023-02-11T11:00:34;101072.66;;;3.24;100.00
36380;BME280;22411;53.016;18.632;2023-02-11T11:03:13;101082.97;;;3.21;100.00
36380;BME280;22411;53.016;18.632;2023-02-11T11:05:59;101090.66;;;3.22;100.00
36380;BME280;22411;53.016;18.632;2023-02-11T11:08:48;101080.34;;;3.24;100.00
36380;BME280;22411;53.016;18.632;2023-02-11T11:11:19;101086.25;;;3.26;100.00
36380;BME280;22411;53.016;18.632;2023-02-11T11:18:46;101081.09;;;3.27;100.00
36380;BME280;22411;53.016;18.632;2023-02-11T11:21:17;101073.38;;;3.29;100.00
36380;BME280;22411;53.016;18.632;2023-02-11T11:24:30;101069.72;;;3.37;100.00
36380;BME280;22411;53.016;18.632;2023-02-11T11:27:00;101069.66;;;3.39;100.00
36380;BME280;22411;53.016;18.632;2023-02-11T11:31:58;101078.94;;;3.43;100.00
36380;BME280;22411;53.016;18.632;2023-02-11T11:34:37;101058.44;;;3.43;100.00
36380;BME280;22411;53.016;18.632;2023-02-11T11:37:24;101065.31;;;3.41;100.00
36380;BME280;22411;53.016;18.632;2023-02-11T11:40:08;101067.81;;;3.42;100.00
36380;BME280;22411;53.016;18.632;2023-02-11T11:42:36;101072.03;;;3.45;100.00
36380;BME280;22411;53.016;18.632;2023-02-11T11:45:24;101057.63;;;3.41;100.00
36380;BME280;22411;53.016;18.632;2023-02-11T11:50:48;101052.31;;;3.47;100.00
36380;BME280;22411;53.016;18.632;2023-02-11T11:53:26;101053.13;;;3.49;100.00
36380;BME280;22411;53.016;18.632;2023-02-11T11:56:05;101053.06;;;3.51;100.00
36380;BME280;22411;53.016;18.632;2023-02-11T11:58:35;101053.81;;;3.54;100.00
36380;BME280;22411;53.016;18.632;2023-02-11T12:14:48;101056.97;;;3.62;100.00
36380;BME280;22411;53.016;18.632;2023-02-11T12:17:28;101055.22;;;3.64;100.00
36380;BME280;22411;53.016;18.632;2023-02-11T12:20:02;101062.91;;;3.64;100.00
36380;BME280;22411;53.016;18.632;2023-02-11T12:22:35;101063.53;;;3.71;100.00
36380;BME280;22411;53.016;18.632;2023-02-11T12:25:25;101052.53;;;3.67;100.00
36380;BME280;22411;53.016;18.632;2023-02-11T12:30:51;101053.19;;;3.74;100.00
36380;BME280;22411;53.016;18.632;2023-02-11T12:33:38;101060.00;;;3.75;100.00
36380;BME280;22411;53.016;18.632;2023-02-11T12:41:58;101075.06;;;3.86;100.00
36380;BME280;22411;53.016;18.632;2023-02-11T12:45:07;101070.72;;;3.88;100.00
36380;BME280;22411;53.016;18.632;2023-02-11T12:50:55;101076.44;;;3.96;100.00
36380;BME280;22411;53.016;18.632;2023-02-11T12:56:32;101069.25;;;4.06;100.00
36380;BME280;22411;53.016;18.632;2023-02-11T12:59:04;101069.19;;;4.09;100.00
36380;BME280;22411;53.016;18.632;2023-02-11T13:01:43;101067.44;;;4.09;100.00
36380;BME280;22411;53.016;18.632;2023-02-11T13:06:58;101081.88;;;4.13;100.00
36380;BME280;22411;53.016;18.632;2023-02-11T13:09:43;101080.06;;;4.15;100.00
36380;BME280;22411;53.016;18.632;2023-02-11T13:12:12;101092.00;;;4.16;100.00
36380;BME280;22411;53.016;18.632;2023-02-11T13:15:06;101083.44;;;4.17;100.00
36380;BME280;22411;53.016;18.632;2023-02-11T13:17:42;101082.50;;;4.20;100.00
36380;BME280;22411;53.016;18.632;2023-02-11T13:26:13;101088.44;;;4.22;100.00
36380;BME280;22411;53.016;18.632;2023-02-11T13:32:15;101106.53;;;4.17;100.00
36380;BME280;22411;53.016;18.632;2023-02-11T13:37:41;101103.97;;;4.17;100.00
36380;BME280;22411;53.016;18.632;2023-02-11T13:40:24;101112.31;;;4.24;100.00
36380;BME280;22411;53.016;18.632;2023-02-11T13:43:22;101110.63;;;4.23;100.00
36380;BME280;22411;53.016;18.632;2023-02-11T13:46:05;101117.44;;;4.24;100.00
36380;BME280;22411;53.016;18.632;2023-02-11T13:48:45;101112.31;;;4.24;100.00
36380;BME280;22411;53.016;18.632;2023-02-11T13:51:15;101119.16;;;4.24;100.00
36380;BME280;22411;53.016;18.632;2023-02-11T13:53:48;101110.63;;;4.23;100.00
36380;BME280;22411;53.016;18.632;2023-02-11T13:56:43;101113.97;;;4.25;100.00
36380;BME280;22411;53.016;18.632;2023-02-11T14:02:23;101125.00;;;4.29;100.00
36380;BME280;22411;53.016;18.632;2023-02-11T14:10:53;101143.84;;;4.28;100.00
36380;BME280;22411;53.016;18.632;2023-02-11T14:16:16;101147.88;;;4.35;100.00
36380;BME280;22411;53.016;18.632;2023-02-11T14:21:35;101151.44;;;4.31;100.00
36380;BME280;22411;53.016;18.632;2023-02-11T14:26:58;101159.94;;;4.33;100.00
36380;BME280;22411;53.016;18.632;2023-02-11T14:42:54;101191.94;;;4.47;100.00
36380;BME280;22411;53.016;18.632;2023-02-11T14:45:26;101183.22;;;4.53;100.00
36380;BME280;22411;53.016;18.632;2023-02-11T14:48:13;101189.03;;;4.58;100.00
36380;BME280;22411;53.016;18.632;2023-02-11T14:50:50;101194.97;;;4.60;100.00
36380;BME280;22411;53.016;18.632;2023-02-11T14:53:20;101201.78;;;4.61;100.00
36380;BME280;22411;53.016;18.632;2023-02-11T14:55:49;101200.13;;;4.60;100.00
36380;BME280;22411;53.016;18.632;2023-02-11T14:58:23;101199.16;;;4.63;100.00
36380;BME280;22411;53.016;18.632;2023-02-11T15:00:56;101205.97;;;4.64;100.00
36380;BME280;22411;53.016;18.632;2023-02-11T15:03:31;101206.72;;;4.67;100.00
36380;BME280;22411;53.016;18.632;2023-02-11T15:06:49;101217.78;;;4.69;100.00
36380;BME280;22411;53.016;18.632;2023-02-11T15:09:00;101207.31;;;4.76;100.00
36380;BME280;22411;53.016;18.632;2023-02-11T15:11:31;101214.22;;;4.73;100.00
36380;BME280;22411;53.016;18.632;2023-02-11T15:14:05;101219.16;;;4.80;100.00
36380;BME280;22411;53.016;18.632;2023-02-11T15:16:33;101206.31;;;4.80;100.00
36380;BME280;22411;53.016;18.632;2023-02-11T15:19:02;101217.53;;;4.77;100.00
36380;BME280;22411;53.016;18.632;2023-02-11T15:21:31;101219.16;;;4.80;100.00